createdAt,value
2023-03-07T00:07:06.577Z,93902.00
2023-03-07T00:08:03.421Z,93902.00
2023-03-07T06:23:12.985Z,93829.00
2023-03-07T06:25:41.632Z,93826.00
2023-03-07T06:41:27.923Z,93820.00
2023-03-07T06:44:04.568Z,93814.00
2023-03-07T06:48:40.579Z,93814.00
2023-03-07T07:06:59.591Z,93798.00
2023-03-07T07:07:59.050Z,93788.00
2023-03-07T07:09:00.283Z,93788.00
2023-03-07T07:11:17.427Z,93786.00
2023-03-07T07:16:36.538Z,93792.00
2023-03-07T07:29:55.412Z,93790.00
2023-03-07T07:30:55.975Z,93786.00
2023-03-07T07:35:02.509Z,93788.00
2023-03-07T07:37:23.599Z,93780.00
2023-03-07T07:39:40.881Z,93782.00
2023-03-07T07:40:42.308Z,93784.00
2023-03-07T07:43:05.787Z,93780.00
2023-03-07T07:46:44.143Z,93778.00
2023-03-07T08:10:44.562Z,93759.00
2023-03-07T08:13:07.118Z,93753.00
2023-03-07T08:14:07.161Z,93753.00
2023-03-07T08:16:25.787Z,93749.00
2023-03-07T08:19:45.188Z,93751.00
2023-03-07T08:22:01.514Z,93751.00
2023-03-07T08:28:56.704Z,93743.00
2023-03-07T08:29:56.773Z,93743.00
2023-03-07T08:30:57.467Z,93745.00
2023-03-07T08:37:15.833Z,93731.00
2023-03-07T08:45:18.007Z,93724.00
2023-03-07T08:46:18.176Z,93724.00
2023-03-07T08:55:55.951Z,93718.00
2023-03-07T08:56:55.540Z,93716.00
2023-03-07T08:59:15.558Z,93714.00
2023-03-07T09:07:52.260Z,93702.00
2023-03-07T09:08:52.864Z,93698.00
2023-03-07T09:09:52.155Z,93694.00
2023-03-07T09:12:11.176Z,93692.00
2023-03-07T09:19:02.670Z,93684.00
2023-03-07T09:35:08.054Z,93659.00
2023-03-07T09:36:07.826Z,93653.00
2023-03-07T09:37:07.991Z,93649.00
2023-03-07T09:38:07.582Z,93645.00
2023-03-07T09:39:07.627Z,93647.00
2023-03-07T09:41:39.535Z,93637.00
2023-03-07T10:08:43.425Z,93590.00
2023-03-07T10:11:19.944Z,93585.00
2023-03-07T10:12:32.377Z,93579.00
2023-03-07T10:13:56.552Z,93575.00
2023-03-07T10:15:08.866Z,93569.00
2023-03-07T10:16:12.505Z,93569.00
2023-03-07T10:17:11.984Z,93567.00
2023-03-07T10:18:12.017Z,93563.00
2023-03-07T10:19:11.960Z,93565.00
2023-03-07T10:20:12.145Z,93561.00
2023-03-07T10:21:11.949Z,93559.00
2023-03-07T10:22:11.921Z,93559.00
2023-03-07T10:23:11.904Z,93559.00
2023-03-07T10:24:11.985Z,93559.00
2023-03-07T10:25:12.252Z,93555.00
2023-03-07T10:26:11.935Z,93559.00
2023-03-07T10:27:11.887Z,93559.00
2023-03-07T10:28:11.894Z,93557.00
2023-03-07T10:29:11.846Z,93553.00
2023-03-07T10:30:11.853Z,93551.00
2023-03-07T10:31:11.870Z,93549.00
2023-03-07T10:32:12.210Z,93547.00
2023-03-07T10:33:11.919Z,93545.00
2023-03-07T10:34:19.837Z,93545.00
2023-03-07T10:35:13.022Z,93539.00
2023-03-07T10:36:11.995Z,93537.00
2023-03-07T10:37:12.001Z,93535.00
2023-03-07T10:38:11.955Z,93531.00
2023-03-07T10:39:11.999Z,93530.00
2023-03-07T10:40:12.132Z,93530.00
2023-03-07T10:41:11.980Z,93526.00
2023-03-07T10:42:12.190Z,93524.00
2023-03-07T10:43:12.293Z,93524.00
2023-03-07T10:44:12.361Z,93518.00
2023-03-07T10:45:12.650Z,93516.00
2023-03-07T10:46:23.699Z,93516.00
2023-03-07T10:47:12.997Z,93514.00
2023-03-07T10:48:12.480Z,93510.00
2023-03-07T10:49:12.059Z,93510.00
2023-03-07T10:50:11.951Z,93510.00
2023-03-07T10:51:12.419Z,93508.00
2023-03-07T10:52:12.097Z,93508.00
2023-03-07T10:53:12.129Z,93502.00
2023-03-07T10:55:31.183Z,93498.00
2023-03-07T11:10:50.375Z,93471.00
2023-03-07T11:15:50.982Z,93457.00
2023-03-07T12:08:09.669Z,93342.00
2023-03-07T12:09:09.335Z,93342.00
2023-03-07T12:10:09.149Z,93342.00
2023-03-07T12:11:09.371Z,93342.00
2023-03-07T12:12:09.317Z,93342.00
2023-03-07T12:13:09.170Z,93340.00
2023-03-07T12:14:09.333Z,93338.00
2023-03-07T12:15:10.048Z,93338.00
2023-03-07T12:16:09.241Z,93328.00
2023-03-07T12:17:09.565Z,93324.00
2023-03-07T12:18:09.346Z,93322.00
2023-03-07T12:19:09.408Z,93316.00
2023-03-07T12:20:09.473Z,93316.00
2023-03-07T12:21:09.530Z,93312.00
2023-03-07T12:22:09.577Z,93316.00
2023-03-07T12:23:09.561Z,93306.00
2023-03-07T12:24:09.597Z,93302.00
2023-03-07T12:25:10.277Z,93298.00
2023-03-07T12:33:07.353Z,93285.00
2023-03-07T12:34:06.833Z,93285.00
2023-03-07T12:35:06.736Z,93279.00
2023-03-07T12:36:07.497Z,93273.00
2023-03-07T12:37:06.986Z,93269.00
2023-03-07T12:38:07.044Z,93253.00
2023-03-07T12:39:08.034Z,93253.00
2023-03-07T12:40:06.654Z,93245.00
2023-03-07T12:41:06.690Z,93245.00
2023-03-07T12:42:06.717Z,93247.00
2023-03-07T12:43:06.664Z,93251.00
2023-03-07T12:44:06.698Z,93255.00
2023-03-07T12:45:06.680Z,93257.00
2023-03-07T12:46:06.635Z,93253.00
2023-03-07T12:47:07.429Z,93247.00
2023-03-07T12:48:06.619Z,93245.00
2023-03-07T12:49:06.605Z,93242.00
2023-03-07T12:50:06.672Z,93243.00
2023-03-07T12:51:06.963Z,93243.00
2023-03-07T12:52:07.677Z,93242.00
2023-03-07T12:53:06.686Z,93236.00
2023-03-07T12:54:06.582Z,93236.00
2023-03-07T12:55:06.579Z,93238.00
2023-03-07T12:56:06.548Z,93238.00
2023-03-07T12:57:06.565Z,93234.00
2023-03-07T12:58:06.511Z,93236.00
2023-03-07T12:59:06.567Z,93230.00
2023-03-07T13:00:06.511Z,93232.00
2023-03-07T13:01:06.566Z,93228.00
2023-03-07T13:02:06.544Z,93218.00
2023-03-07T13:03:06.490Z,93214.00
2023-03-07T13:04:06.643Z,93216.00
2023-03-07T13:05:06.594Z,93214.00
2023-03-07T13:06:06.607Z,93212.00
2023-03-07T13:07:06.658Z,93210.00
2023-03-07T13:08:06.683Z,93206.00
2023-03-07T13:09:06.785Z,93198.00
2023-03-07T13:10:06.847Z,93202.00
2023-03-07T13:11:06.848Z,93204.00
2023-03-07T13:12:06.931Z,93196.00
2023-03-07T13:13:06.954Z,93214.00
2023-03-07T13:14:07.734Z,93212.00
2023-03-07T13:16:37.837Z,93200.00
2023-03-07T14:10:22.314Z,93153.00
2023-03-07T14:17:24.034Z,93153.00
2023-03-07T14:18:23.880Z,93153.00
2023-03-07T14:19:24.160Z,93153.00
2023-03-07T14:20:24.145Z,93159.00
2023-03-07T14:21:23.914Z,93173.00
2023-03-07T14:22:23.895Z,93149.00
2023-03-07T14:23:23.976Z,93159.00
2023-03-07T14:24:24.202Z,93155.00
2023-03-07T14:25:25.185Z,93153.00
2023-03-07T14:26:23.949Z,93147.00
2023-03-07T14:27:24.131Z,93165.00
2023-03-07T14:28:24.267Z,93155.00
2023-03-07T14:29:24.179Z,93153.00
2023-03-07T14:30:24.188Z,93141.00
2023-03-07T14:31:24.274Z,93143.00
2023-03-07T14:33:43.097Z,93153.00
2023-03-07T14:34:43.085Z,93155.00
2023-03-07T14:35:43.062Z,93140.00
2023-03-07T14:36:45.788Z,93155.00
2023-03-07T14:37:42.943Z,93138.00
2023-03-07T14:38:42.928Z,93143.00
2023-03-07T14:39:43.002Z,93155.00
2023-03-07T14:40:42.922Z,93143.00
2023-03-07T14:41:42.938Z,93145.00
2023-03-07T14:42:42.910Z,93143.00
2023-03-07T14:43:42.895Z,93155.00
2023-03-07T14:44:42.933Z,93151.00
2023-03-07T14:45:42.870Z,93151.00
2023-03-07T14:47:42.915Z,93155.00
2023-03-07T14:48:43.030Z,93138.00
2023-03-07T14:49:42.858Z,93145.00
2023-03-07T14:50:42.867Z,93155.00
2023-03-07T14:51:42.839Z,93143.00
2023-03-07T14:53:42.829Z,93147.00
2023-03-07T14:54:42.805Z,93147.00
2023-03-07T14:55:42.894Z,93145.00
2023-03-07T14:56:42.797Z,93143.00
2023-03-07T14:59:02.177Z,93153.00
2023-03-07T15:00:02.367Z,93149.00
2023-03-07T15:01:01.930Z,93151.00
2023-03-07T15:02:01.892Z,93151.00
2023-03-07T15:03:01.808Z,93161.00
2023-03-07T15:04:01.912Z,93153.00
2023-03-07T15:05:01.734Z,93161.00
2023-03-07T15:06:01.926Z,93138.00
2023-03-07T15:07:01.867Z,93136.00
2023-03-07T15:08:01.812Z,93138.00
2023-03-07T15:09:01.878Z,93143.00
2023-03-07T15:10:01.717Z,93155.00
2023-03-07T15:11:02.696Z,93143.00
2023-03-07T15:12:01.859Z,93138.00
2023-03-07T15:13:01.708Z,93134.00
2023-03-07T15:14:02.689Z,93136.00
2023-03-07T15:15:01.785Z,93140.00
2023-03-07T15:16:01.675Z,93138.00
2023-03-07T15:17:01.799Z,93128.00
2023-03-07T15:18:01.706Z,93138.00
2023-03-07T15:19:01.750Z,93141.00
2023-03-07T15:20:01.638Z,93141.00
2023-03-07T15:21:02.661Z,93132.00
2023-03-07T15:22:01.694Z,93132.00
2023-03-07T15:23:01.624Z,93140.00
2023-03-07T15:24:01.917Z,93145.00
2023-03-07T15:25:02.677Z,93140.00
2023-03-07T15:26:01.766Z,93143.00
2023-03-07T15:27:01.775Z,93138.00
2023-03-07T15:28:02.608Z,93143.00
2023-03-07T15:29:01.655Z,93143.00
2023-03-07T15:30:01.690Z,93140.00
2023-03-07T15:31:01.691Z,93165.00
2023-03-07T15:32:01.721Z,93153.00
2023-03-07T15:33:02.657Z,93140.00
2023-03-07T15:34:01.528Z,93151.00
2023-03-07T15:35:01.581Z,93155.00
2023-03-07T15:36:01.673Z,93140.00
2023-03-07T15:37:16.719Z,93143.00
2023-03-07T15:38:01.816Z,93149.00
2023-03-07T15:39:01.744Z,93149.00
2023-03-07T15:40:01.840Z,93151.00
2023-03-07T15:41:01.761Z,93145.00
2023-03-07T15:42:01.501Z,93147.00
2023-03-07T15:43:03.404Z,93141.00
2023-03-07T15:44:01.384Z,93153.00
2023-03-07T15:45:01.385Z,93155.00
2023-03-07T15:46:01.404Z,93149.00
2023-03-07T15:47:01.452Z,93145.00
2023-03-07T15:48:01.388Z,93147.00
2023-03-07T15:49:01.403Z,93149.00
2023-03-07T15:50:01.346Z,93147.00
2023-03-07T15:51:01.416Z,93153.00
2023-03-07T15:52:01.364Z,93167.00
2023-03-07T15:53:01.337Z,93167.00
2023-03-07T15:54:01.317Z,93167.00
2023-03-07T15:55:01.349Z,93155.00
2023-03-07T15:56:01.280Z,93167.00
2023-03-07T15:57:01.339Z,93165.00
2023-03-07T15:58:01.305Z,93157.00
2023-03-07T15:59:01.323Z,93157.00
2023-03-07T16:00:01.315Z,93151.00
2023-03-07T16:01:01.276Z,93141.00
2023-03-07T16:02:01.320Z,93153.00
2023-03-07T16:03:01.371Z,93177.00
2023-03-07T16:04:01.327Z,93175.00
2023-03-07T16:05:01.290Z,93165.00
2023-03-07T16:06:01.219Z,93155.00
2023-03-07T16:07:01.425Z,93161.00
2023-03-07T16:08:01.225Z,93151.00
2023-03-07T16:09:01.226Z,93165.00
2023-03-07T16:10:01.220Z,93157.00
2023-03-07T16:11:01.232Z,93167.00
2023-03-07T16:12:01.239Z,93177.00
2023-03-07T16:13:01.209Z,93169.00
2023-03-07T16:14:01.261Z,93175.00
2023-03-07T16:15:01.214Z,93163.00
2023-03-07T16:16:01.252Z,93157.00
2023-03-07T16:17:01.206Z,93163.00
2023-03-07T16:18:01.266Z,93161.00
2023-03-07T16:19:01.204Z,93169.00
2023-03-07T16:20:01.147Z,93181.00
2023-03-07T16:21:01.146Z,93181.00
2023-03-07T16:22:01.181Z,93187.00
2023-03-07T16:23:01.231Z,93177.00
2023-03-07T16:24:01.146Z,93175.00
2023-03-07T16:25:01.100Z,93179.00
2023-03-07T16:26:01.141Z,93175.00
2023-03-07T16:27:01.122Z,93187.00
2023-03-07T16:28:01.112Z,93189.00
2023-03-07T16:29:01.079Z,93177.00
2023-03-07T16:30:01.114Z,93179.00
2023-03-07T16:31:01.109Z,93187.00
2023-03-07T16:32:01.127Z,93185.00
2023-03-07T16:33:01.076Z,93169.00
2023-03-07T16:34:01.064Z,93187.00
2023-03-07T16:35:01.029Z,93165.00
2023-03-07T16:36:01.141Z,93173.00
2023-03-07T16:37:01.063Z,93177.00
2023-03-07T16:38:01.005Z,93179.00
2023-03-07T16:39:01.010Z,93185.00
2023-03-07T16:40:01.069Z,93187.00
2023-03-07T16:41:01.096Z,93189.00
2023-03-07T16:42:01.011Z,93187.00
2023-03-07T16:43:00.977Z,93183.00
2023-03-07T16:44:00.988Z,93181.00
2023-03-07T16:45:00.999Z,93183.00
2023-03-07T16:46:01.025Z,93185.00
2023-03-07T16:47:00.962Z,93187.00
2023-03-07T16:48:00.975Z,93191.00
2023-03-07T16:49:00.916Z,93195.00
2023-03-07T16:50:01.050Z,93198.00
2023-03-07T16:51:00.946Z,93206.00
2023-03-07T16:52:06.017Z,93208.00
2023-03-07T16:53:01.912Z,93212.00
2023-03-07T16:54:00.911Z,93212.00
2023-03-07T16:55:00.925Z,93212.00
2023-03-07T16:56:00.870Z,93216.00
2023-03-07T16:57:00.907Z,93218.00
2023-03-07T16:58:00.906Z,93228.00
2023-03-07T16:59:00.897Z,93230.00
2023-03-07T17:00:00.933Z,93232.00
2023-03-07T17:01:00.974Z,93230.00
2023-03-07T17:02:00.871Z,93228.00
2023-03-07T17:03:00.869Z,93228.00
2023-03-07T17:04:00.824Z,93230.00
2023-03-07T17:05:00.820Z,93238.00
2023-03-07T17:06:00.846Z,93240.00
2023-03-07T17:07:04.741Z,93243.00
2023-03-07T17:08:00.795Z,93249.00
2023-03-07T17:09:00.825Z,93253.00
2023-03-07T17:10:00.888Z,93257.00
2023-03-07T17:11:00.791Z,93265.00
2023-03-07T17:12:00.883Z,93273.00
2023-03-07T17:13:00.992Z,93271.00
2023-03-07T17:14:00.778Z,93275.00
2023-03-07T17:15:00.756Z,93279.00
2023-03-07T17:16:00.737Z,93283.00
2023-03-07T17:17:00.791Z,93285.00
2023-03-07T17:18:00.727Z,93287.00
2023-03-07T17:19:00.883Z,93287.00
2023-03-07T17:20:00.752Z,93290.00
2023-03-07T17:21:00.730Z,93290.00
2023-03-07T17:22:00.743Z,93294.00
2023-03-07T17:23:00.667Z,93294.00
2023-03-07T17:24:00.818Z,93298.00
2023-03-07T17:25:01.345Z,93300.00
2023-03-07T17:26:00.749Z,93300.00
2023-03-07T17:27:00.764Z,93300.00
2023-03-07T17:28:00.749Z,93300.00
2023-03-07T17:29:00.745Z,93300.00
2023-03-07T17:30:00.693Z,93306.00
2023-03-07T17:31:00.756Z,93306.00
2023-03-07T17:32:00.715Z,93312.00
2023-03-07T17:33:00.760Z,93310.00
2023-03-07T17:34:00.725Z,93318.00
2023-03-07T17:35:00.734Z,93318.00
2023-03-07T17:36:00.724Z,93326.00
2023-03-07T17:37:00.662Z,93330.00
2023-03-07T17:38:00.680Z,93334.00
2023-03-07T17:39:00.612Z,93336.00
2023-03-07T17:40:00.602Z,93340.00
2023-03-07T17:47:00.537Z,93340.00
2023-03-07T17:48:00.560Z,93340.00
2023-03-07T17:49:00.597Z,93338.00
2023-03-07T17:50:00.496Z,93342.00
2023-03-07T17:51:00.471Z,93344.00
2023-03-07T17:52:00.530Z,93355.00
2023-03-07T17:53:00.489Z,93357.00
2023-03-07T17:54:00.536Z,93365.00
2023-03-07T17:55:00.527Z,93367.00
2023-03-07T17:56:00.578Z,93367.00
2023-03-07T17:57:00.909Z,93367.00
2023-03-07T17:58:01.034Z,93369.00
2023-03-07T17:59:00.702Z,93373.00
2023-03-07T18:00:00.634Z,93379.00
2023-03-07T18:01:00.735Z,93382.00
2023-03-07T18:02:00.818Z,93386.00
2023-03-07T18:03:00.820Z,93388.00
2023-03-07T18:04:00.886Z,93388.00
2023-03-07T18:05:00.873Z,93390.00
2023-03-07T18:06:00.859Z,93386.00
2023-03-07T18:07:00.887Z,93384.00
2023-03-07T18:08:00.796Z,93382.00
2023-03-07T18:09:00.817Z,93381.00
2023-03-07T18:10:07.890Z,93381.00
2023-03-07T18:12:00.970Z,93382.00
2023-03-07T18:13:00.910Z,93382.00
2023-03-07T18:14:00.849Z,93386.00
2023-03-07T18:15:00.824Z,93388.00
2023-03-07T18:16:00.843Z,93396.00
2023-03-07T18:17:00.843Z,93394.00
2023-03-07T18:18:01.025Z,93396.00
2023-03-07T18:19:03.543Z,93402.00
2023-03-07T18:21:20.083Z,93404.00
2023-03-07T18:22:20.487Z,93408.00
2023-03-07T18:23:20.014Z,93410.00
2023-03-07T18:24:19.751Z,93408.00
2023-03-07T18:25:19.653Z,93408.00
2023-03-07T18:26:20.717Z,93410.00
2023-03-07T18:27:19.669Z,93408.00
2023-03-07T18:28:20.564Z,93406.00
2023-03-07T18:29:19.565Z,93408.00
2023-03-07T18:30:19.543Z,93406.00
2023-03-07T18:31:19.624Z,93408.00
2023-03-07T18:32:19.751Z,93412.00
2023-03-07T18:33:19.565Z,93408.00
2023-03-07T18:35:20.620Z,93410.00
2023-03-07T18:36:19.578Z,93408.00
2023-03-07T18:37:19.594Z,93408.00
2023-03-07T18:38:19.560Z,93416.00
2023-03-07T19:22:17.370Z,93453.00
2023-03-07T19:23:17.249Z,93457.00
2023-03-07T19:24:17.074Z,93457.00
2023-03-07T19:25:16.646Z,93459.00
2023-03-07T19:26:16.663Z,93463.00
2023-03-07T19:27:16.880Z,93465.00
2023-03-07T19:28:16.690Z,93467.00
2023-03-07T19:29:16.634Z,93471.00
2023-03-07T19:30:16.646Z,93471.00
2023-03-07T19:31:16.693Z,93473.00
2023-03-07T19:32:16.758Z,93473.00
2023-03-07T19:33:16.591Z,93475.00
2023-03-07T19:34:16.600Z,93475.00
2023-03-07T19:35:16.639Z,93475.00
2023-03-07T19:36:16.615Z,93477.00
2023-03-07T19:37:16.575Z,93477.00
2023-03-07T19:38:16.616Z,93481.00
2023-03-07T19:39:16.602Z,93484.00
2023-03-07T19:40:16.523Z,93488.00
2023-03-07T19:41:16.535Z,93490.00
2023-03-07T19:42:16.611Z,93488.00
2023-03-07T19:43:16.556Z,93492.00
2023-03-07T19:44:16.534Z,93490.00
2023-03-07T19:45:16.562Z,93490.00
2023-03-07T19:46:16.582Z,93492.00
2023-03-07T19:47:16.536Z,93490.00
2023-03-07T19:48:16.502Z,93490.00
2023-03-07T19:49:16.494Z,93492.00
2023-03-07T19:50:16.452Z,93492.00
2023-03-07T19:51:16.455Z,93498.00
2023-03-07T19:52:16.528Z,93502.00
2023-03-07T19:53:16.534Z,93504.00
2023-03-07T19:54:17.160Z,93508.00
2023-03-07T20:06:13.795Z,93526.00
2023-03-07T20:07:14.796Z,93526.00
2023-03-07T20:08:14.557Z,93528.00
2023-03-07T20:09:13.549Z,93526.00
2023-03-07T20:10:13.386Z,93524.00
2023-03-07T20:11:13.504Z,93524.00
2023-03-07T20:13:32.817Z,93524.00
2023-03-07T20:19:45.437Z,93530.00
2023-03-07T20:20:45.256Z,93528.00
2023-03-07T20:21:45.244Z,93531.00
2023-03-07T20:22:45.364Z,93530.00
2023-03-07T20:23:45.300Z,93528.00
2023-03-07T20:24:45.317Z,93530.00
2023-03-07T20:25:45.408Z,93530.00
2023-03-07T20:26:45.391Z,93526.00
2023-03-07T20:27:45.474Z,93526.00
2023-03-07T20:28:45.513Z,93524.00
2023-03-07T20:29:45.555Z,93522.00
2023-03-07T20:30:45.705Z,93522.00
2023-03-07T20:31:45.675Z,93520.00
2023-03-07T20:32:45.761Z,93520.00
2023-03-07T20:33:45.775Z,93522.00
2023-03-07T20:34:46.166Z,93526.00
2023-03-07T20:35:46.224Z,93524.00
2023-03-07T20:36:46.430Z,93526.00
2023-03-07T20:37:46.198Z,93528.00
2023-03-07T20:38:46.434Z,93528.00
2023-03-07T20:39:46.188Z,93530.00
2023-03-07T20:40:46.442Z,93524.00
2023-03-07T20:43:05.706Z,93530.00
2023-03-07T20:44:05.568Z,93528.00
2023-03-07T20:45:05.932Z,93530.00
2023-03-07T20:47:24.836Z,93531.00
2023-03-07T21:29:34.588Z,93537.00
2023-03-07T21:33:18.248Z,93543.00
2023-03-07T21:34:18.457Z,93551.00
2023-03-07T21:35:18.457Z,93553.00
2023-03-07T21:36:19.327Z,93559.00
2023-03-07T21:38:37.109Z,93561.00
2023-03-07T21:39:37.232Z,93559.00
2023-03-07T21:40:38.006Z,93557.00
2023-03-07T21:41:36.974Z,93557.00
2023-03-07T21:42:36.992Z,93555.00
2023-03-07T21:43:36.956Z,93561.00
2023-03-07T21:44:37.139Z,93565.00
2023-03-07T21:45:37.902Z,93569.00
2023-03-07T21:46:36.946Z,93573.00
2023-03-07T21:47:37.923Z,93579.00
2023-03-07T21:48:36.968Z,93583.00
2023-03-07T21:49:36.929Z,93585.00
2023-03-07T21:50:36.979Z,93586.00
2023-03-07T21:51:36.914Z,93588.00
2023-03-07T21:59:26.574Z,93600.00
2023-03-07T22:00:26.184Z,93594.00
2023-03-07T22:01:26.097Z,93596.00
2023-03-07T22:02:26.021Z,93598.00
2023-03-07T22:03:26.048Z,93608.00
2023-03-07T22:04:26.128Z,93598.00
2023-03-07T22:05:26.028Z,93600.00
2023-03-07T22:06:26.012Z,93600.00
2023-03-07T22:07:25.985Z,93600.00
2023-03-07T22:08:26.013Z,93612.00
2023-03-07T22:09:26.148Z,93614.00
2023-03-07T22:10:26.300Z,93614.00
2023-03-07T22:17:31.749Z,93627.00
2023-03-07T22:18:31.631Z,93629.00
2023-03-07T22:19:31.498Z,93633.00
2023-03-07T22:20:31.445Z,93633.00
2023-03-07T22:21:31.782Z,93633.00
2023-03-07T22:22:31.963Z,93633.00
2023-03-07T22:23:31.958Z,93631.00
2023-03-07T22:24:31.659Z,93627.00
2023-03-07T22:25:31.684Z,93629.00
2023-03-07T22:26:32.186Z,93627.00
2023-03-07T22:27:31.894Z,93629.00
2023-03-07T22:28:31.772Z,93631.00
2023-03-07T22:29:32.268Z,93633.00
2023-03-07T22:30:32.907Z,93631.00
2023-03-07T22:31:32.015Z,93633.00
2023-03-07T22:32:32.038Z,93633.00
2023-03-07T22:33:33.331Z,93641.00
2023-03-07T22:34:32.142Z,93641.00
2023-03-07T22:35:32.136Z,93641.00
2023-03-07T22:36:32.223Z,93641.00
2023-03-07T22:37:32.212Z,93637.00
2023-03-07T22:38:32.095Z,93637.00
2023-03-07T22:39:32.010Z,93643.00
2023-03-07T22:41:51.242Z,93647.00
2023-03-07T22:42:51.429Z,93647.00
2023-03-07T22:43:50.916Z,93651.00
2023-03-07T22:44:50.843Z,93655.00
2023-03-07T22:45:50.933Z,93655.00
2023-03-07T22:46:50.815Z,93655.00
2023-03-07T22:47:50.825Z,93655.00
2023-03-07T22:48:50.851Z,93657.00
2023-03-07T22:49:50.873Z,93663.00
2023-03-07T22:50:50.791Z,93663.00
2023-03-07T22:51:50.809Z,93661.00
2023-03-07T22:52:50.814Z,93663.00
2023-03-07T22:53:50.801Z,93665.00
2023-03-07T22:54:50.748Z,93663.00
2023-03-07T22:55:50.795Z,93663.00
2023-03-07T22:56:50.776Z,93663.00
2023-03-07T22:57:50.794Z,93659.00
2023-03-07T23:07:10.633Z,93665.00
2023-03-07T23:26:53.930Z,93677.00
2023-03-07T23:27:53.993Z,93677.00
2023-03-07T23:30:12.691Z,93680.00
2023-03-07T23:32:31.713Z,93677.00
2023-03-07T23:33:31.680Z,93680.00
